sensor_id;sensor_type;location;lat;lon;timestamp;temperature;humidity
5055;DHT22;13829;48.990;8.346;2023-04-16T00:00:15;10.40;99.90
5055;DHT22;13829;48.990;8.346;2023-04-16T00:02:42;10.40;99.90
5055;DHT22;13829;48.990;8.346;2023-04-16T00:05:10;10.40;99.90
5055;DHT22;13829;48.990;8.346;2023-04-16T00:07:37;10.40;99.90
5055;DHT22;13829;48.990;8.346;2023-04-16T00:10:06;10.40;99.90
5055;DHT22;13829;48.990;8.346;2023-04-16T00:12:33;10.50;99.90
5055;DHT22;13829;48.990;8.346;2023-04-16T00:15:01;10.40;99.90
5055;DHT22;13829;48.990;8.346;2023-04-16T00:17:28;10.40;99.90
5055;DHT22;13829;48.990;8.346;2023-04-16T00:19:54;10.40;99.90
5055;DHT22;13829;48.990;8.346;2023-04-16T00:22:23;10.40;99.90
5055;DHT22;13829;48.990;8.346;2023-04-16T00:24:50;10.40;99.90
5055;DHT22;13829;48.990;8.346;2023-04-16T00:27:17;10.40;99.90
5055;DHT22;13829;48.990;8.346;2023-04-16T00:29:45;10.40;99.90
5055;DHT22;13829;48.990;8.346;2023-04-16T00:32:12;10.40;99.90
5055;DHT22;13829;48.990;8.346;2023-04-16T00:34:39;10.40;99.90
5055;DHT22;13829;48.990;8.346;2023-04-16T00:37:06;10.40;99.90
5055;DHT22;13829;48.990;8.346;2023-04-16T00:39:34;10.40;99.90
5055;DHT22;13829;48.990;8.346;2023-04-16T00:42:01;10.40;99.90
5055;DHT22;13829;48.990;8.346;2023-04-16T00:44:28;10.40;99.90
5055;DHT22;13829;48.990;8.346;2023-04-16T00:46:55;10.40;99.90
5055;DHT22;13829;48.990;8.346;2023-04-16T00:49:23;10.40;99.90
5055;DHT22;13829;48.990;8.346;2023-04-16T00:51:50;10.30;99.90
5055;DHT22;13829;48.990;8.346;2023-04-16T00:54:17;10.30;99.90
5055;DHT22;13829;48.990;8.346;2023-04-16T00:56:46;10.30;99.90
5055;DHT22;13829;48.990;8.346;2023-04-16T00:59:13;10.30;99.90
5055;DHT22;13829;48.990;8.346;2023-04-16T01:01:40;10.30;99.90
5055;DHT22;13829;48.990;8.346;2023-04-16T01:04:07;10.30;99.90
5055;DHT22;13829;48.990;8.346;2023-04-16T01:06:35;10.40;99.90
5055;DHT22;13829;48.990;8.346;2023-04-16T01:09:02;10.40;99.90
5055;DHT22;13829;48.990;8.346;2023-04-16T01:11:29;10.30;99.90
5055;DHT22;13829;48.990;8.346;2023-04-16T01:13:57;10.30;99.90
5055;DHT22;13829;48.990;8.346;2023-04-16T01:16:24;10.30;99.90
5055;DHT22;13829;48.990;8.346;2023-04-16T01:18:51;10.30;99.90
5055;DHT22;13829;48.990;8.346;2023-04-16T01:21:19;10.30;99.90
5055;DHT22;13829;48.990;8.346;2023-04-16T01:23:46;10.30;99.90
5055;DHT22;13829;48.990;8.346;2023-04-16T01:26:13;10.30;99.90
5055;DHT22;13829;48.990;8.346;2023-04-16T01:28:40;10.30;99.90
5055;DHT22;13829;48.990;8.346;2023-04-16T01:31:07;10.30;99.90
5055;DHT22;13829;48.990;8.346;2023-04-16T01:33:34;10.30;99.90
5055;DHT22;13829;48.990;8.346;2023-04-16T01:36:01;10.40;99.90
5055;DHT22;13829;48.990;8.346;2023-04-16T01:38:29;10.40;99.90
5055;DHT22;13829;48.990;8.346;2023-04-16T01:40:56;10.40;99.90
5055;DHT22;13829;48.990;8.346;2023-04-16T01:43:24;10.30;99.90
5055;DHT22;13829;48.990;8.346;2023-04-16T01:45:51;10.20;99.90
5055;DHT22;13829;48.990;8.346;2023-04-16T01:48:24;10.20;99.90
5055;DHT22;13829;48.990;8.346;2023-04-16T01:50:51;10.30;99.90
5055;DHT22;13829;48.990;8.346;2023-04-16T01:53:18;10.30;99.90
5055;DHT22;13829;48.990;8.346;2023-04-16T01:55:46;10.30;99.90
5055;DHT22;13829;48.990;8.346;2023-04-16T01:58:13;10.30;99.90
5055;DHT22;13829;48.990;8.346;2023-04-16T02:00:40;10.30;99.90
5055;DHT22;13829;48.990;8.346;2023-04-16T02:03:07;10.30;99.90
5055;DHT22;13829;48.990;8.346;2023-04-16T02:05:35;10.30;99.90
5055;DHT22;13829;48.990;8.346;2023-04-16T02:08:02;10.30;99.90
5055;DHT22;13829;48.990;8.346;2023-04-16T02:10:29;10.30;99.90
5055;DHT22;13829;48.990;8.346;2023-04-16T02:12:57;10.20;99.90
5055;DHT22;13829;48.990;8.346;2023-04-16T02:15:24;10.20;99.90
5055;DHT22;13829;48.990;8.346;2023-04-16T02:17:51;10.20;99.90
5055;DHT22;13829;48.990;8.346;2023-04-16T02:20:21;10.20;99.90
5055;DHT22;13829;48.990;8.346;2023-04-16T02:22:48;10.20;99.90
5055;DHT22;13829;48.990;8.346;2023-04-16T02:25:15;10.20;99.90
5055;DHT22;13829;48.990;8.346;2023-04-16T02:27:42;10.20;99.90
5055;DHT22;13829;48.990;8.346;2023-04-16T02:30:11;10.20;99.90
5055;DHT22;13829;48.990;8.346;2023-04-16T02:32:38;10.20;99.90
5055;DHT22;13829;48.990;8.346;2023-04-16T02:35:06;10.20;99.90
5055;DHT22;13829;48.990;8.346;2023-04-16T02:37:33;10.20;99.90
5055;DHT22;13829;48.990;8.346;2023-04-16T02:40:00;10.20;99.90
5055;DHT22;13829;48.990;8.346;2023-04-16T02:42:27;10.20;99.90
5055;DHT22;13829;48.990;8.346;2023-04-16T02:44:54;10.30;99.90
5055;DHT22;13829;48.990;8.346;2023-04-16T02:47:22;10.30;99.90
5055;DHT22;13829;48.990;8.346;2023-04-16T02:49:49;10.20;99.90
5055;DHT22;13829;48.990;8.346;2023-04-16T02:52:16;10.20;99.90
5055;DHT22;13829;48.990;8.346;2023-04-16T02:54:43;10.20;99.90
5055;DHT22;13829;48.990;8.346;2023-04-16T02:57:10;10.20;99.90
5055;DHT22;13829;48.990;8.346;2023-04-16T02:59:37;10.20;99.90
5055;DHT22;13829;48.990;8.346;2023-04-16T03:02:04;10.20;99.90
5055;DHT22;13829;48.990;8.346;2023-04-16T03:04:33;10.30;99.90
5055;DHT22;13829;48.990;8.346;2023-04-16T03:07:00;10.20;99.90
5055;DHT22;13829;48.990;8.346;2023-04-16T03:09:27;10.20;99.90
5055;DHT22;13829;48.990;8.346;2023-04-16T03:11:53;10.20;99.90
5055;DHT22;13829;48.990;8.346;2023-04-16T03:14:21;10.20;99.90
5055;DHT22;13829;48.990;8.346;2023-04-16T03:16:48;10.30;99.90
5055;DHT22;13829;48.990;8.346;2023-04-16T03:19:15;10.30;99.90
5055;DHT22;13829;48.990;8.346;2023-04-16T03:21:43;10.30;99.90
5055;DHT22;13829;48.990;8.346;2023-04-16T03:24:10;10.20;99.90
5055;DHT22;13829;48.990;8.346;2023-04-16T03:26:37;10.30;99.90
5055;DHT22;13829;48.990;8.346;2023-04-16T03:29:04;10.20;99.90
5055;DHT22;13829;48.990;8.346;2023-04-16T03:31:31;10.30;99.90
5055;DHT22;13829;48.990;8.346;2023-04-16T03:33:58;10.20;99.90
5055;DHT22;13829;48.990;8.346;2023-04-16T03:36:25;10.20;99.90
5055;DHT22;13829;48.990;8.346;2023-04-16T03:38:54;10.20;99.90
5055;DHT22;13829;48.990;8.346;2023-04-16T03:41:21;10.20;99.90
5055;DHT22;13829;48.990;8.346;2023-04-16T03:43:47;10.20;99.90
5055;DHT22;13829;48.990;8.346;2023-04-16T03:46:14;10.30;99.90
5055;DHT22;13829;48.990;8.346;2023-04-16T03:48:41;10.30;99.90
5055;DHT22;13829;48.990;8.346;2023-04-16T03:51:08;10.20;99.90
5055;DHT22;13829;48.990;8.346;2023-04-16T03:53:35;10.20;99.90
5055;DHT22;13829;48.990;8.346;2023-04-16T03:56:04;10.30;99.90
5055;DHT22;13829;48.990;8.346;2023-04-16T03:58:31;10.20;99.90
5055;DHT22;13829;48.990;8.346;2023-04-16T04:00:58;10.20;99.90
5055;DHT22;13829;48.990;8.346;2023-04-16T04:03:25;10.30;99.90
5055;DHT22;13829;48.990;8.346;2023-04-16T04:05:52;10.20;99.90
5055;DHT22;13829;48.990;8.346;2023-04-16T04:08:19;10.30;99.90
5055;DHT22;13829;48.990;8.346;2023-04-16T04:10:46;10.30;99.90
5055;DHT22;13829;48.990;8.346;2023-04-16T04:13:14;10.30;99.90
5055;DHT22;13829;48.990;8.346;2023-04-16T04:15:41;10.30;99.90
5055;DHT22;13829;48.990;8.346;2023-04-16T04:18:08;10.30;99.90
5055;DHT22;13829;48.990;8.346;2023-04-16T04:20:38;10.30;99.90
5055;DHT22;13829;48.990;8.346;2023-04-16T04:23:05;10.30;99.90
5055;DHT22;13829;48.990;8.346;2023-04-16T04:25:32;10.30;99.90
5055;DHT22;13829;48.990;8.346;2023-04-16T04:27:59;10.30;99.90
5055;DHT22;13829;48.990;8.346;2023-04-16T04:30:27;10.30;99.90
5055;DHT22;13829;48.990;8.346;2023-04-16T04:32:54;10.30;99.90
5055;DHT22;13829;48.990;8.346;2023-04-16T04:35:21;10.30;99.90
5055;DHT22;13829;48.990;8.346;2023-04-16T04:37:48;10.30;99.90
5055;DHT22;13829;48.990;8.346;2023-04-16T04:40:15;10.40;99.90
5055;DHT22;13829;48.990;8.346;2023-04-16T04:42:42;10.40;99.90
5055;DHT22;13829;48.990;8.346;2023-04-16T04:45:09;10.30;99.90
5055;DHT22;13829;48.990;8.346;2023-04-16T04:47:38;10.30;99.90
5055;DHT22;13829;48.990;8.346;2023-04-16T04:50:06;10.20;99.90
5055;DHT22;13829;48.990;8.346;2023-04-16T04:52:33;10.20;99.90
5055;DHT22;13829;48.990;8.346;2023-04-16T04:55:00;10.20;99.90
5055;DHT22;13829;48.990;8.346;2023-04-16T04:57:27;10.20;99.90
5055;DHT22;13829;48.990;8.346;2023-04-16T04:59:54;10.20;99.90
5055;DHT22;13829;48.990;8.346;2023-04-16T05:02:21;10.20;99.90
5055;DHT22;13829;48.990;8.346;2023-04-16T05:04:49;10.20;99.90
5055;DHT22;13829;48.990;8.346;2023-04-16T05:07:16;10.20;99.90
5055;DHT22;13829;48.990;8.346;2023-04-16T05:09:43;10.20;99.90
5055;DHT22;13829;48.990;8.346;2023-04-16T05:12:10;10.30;99.90
5055;DHT22;13829;48.990;8.346;2023-04-16T05:14:37;10.30;99.90
5055;DHT22;13829;48.990;8.346;2023-04-16T05:17:04;10.30;99.90
5055;DHT22;13829;48.990;8.346;2023-04-16T05:19:32;10.30;99.90
5055;DHT22;13829;48.990;8.346;2023-04-16T05:22:00;10.30;99.90
5055;DHT22;13829;48.990;8.346;2023-04-16T05:24:28;10.40;99.90
5055;DHT22;13829;48.990;8.346;2023-04-16T05:26:55;10.40;99.90
5055;DHT22;13829;48.990;8.346;2023-04-16T05:29:23;10.40;99.90
5055;DHT22;13829;48.990;8.346;2023-04-16T05:31:50;10.40;99.90
5055;DHT22;13829;48.990;8.346;2023-04-16T05:34:18;10.40;99.90
5055;DHT22;13829;48.990;8.346;2023-04-16T05:36:45;10.40;99.90
5055;DHT22;13829;48.990;8.346;2023-04-16T05:39:15;10.30;99.90
5055;DHT22;13829;48.990;8.346;2023-04-16T05:41:42;10.30;99.90
5055;DHT22;13829;48.990;8.346;2023-04-16T05:44:09;10.30;99.90
5055;DHT22;13829;48.990;8.346;2023-04-16T05:46:36;10.30;99.90
5055;DHT22;13829;48.990;8.346;2023-04-16T05:49:03;10.40;99.90
5055;DHT22;13829;48.990;8.346;2023-04-16T05:51:30;10.40;99.90
5055;DHT22;13829;48.990;8.346;2023-04-16T05:53:57;10.40;99.90
5055;DHT22;13829;48.990;8.346;2023-04-16T05:56:25;10.40;99.90
5055;DHT22;13829;48.990;8.346;2023-04-16T05:58:52;10.30;99.90
5055;DHT22;13829;48.990;8.346;2023-04-16T06:01:20;10.30;99.90
5055;DHT22;13829;48.990;8.346;2023-04-16T06:03:48;10.30;99.90
5055;DHT22;13829;48.990;8.346;2023-04-16T06:06:15;10.30;99.90
5055;DHT22;13829;48.990;8.346;2023-04-16T06:08:42;10.30;99.90
5055;DHT22;13829;48.990;8.346;2023-04-16T06:11:09;10.40;99.90
5055;DHT22;13829;48.990;8.346;2023-04-16T06:13:38;10.40;99.90
5055;DHT22;13829;48.990;8.346;2023-04-16T06:16:05;10.30;99.90
5055;DHT22;13829;48.990;8.346;2023-04-16T06:18:32;10.40;99.90
5055;DHT22;13829;48.990;8.346;2023-04-16T06:20:59;10.40;99.90
5055;DHT22;13829;48.990;8.346;2023-04-16T06:23:26;10.40;99.90
5055;DHT22;13829;48.990;8.346;2023-04-16T06:25:53;10.50;99.90
5055;DHT22;13829;48.990;8.346;2023-04-16T06:28:20;10.50;99.90
5055;DHT22;13829;48.990;8.346;2023-04-16T06:30:49;10.50;99.90
5055;DHT22;13829;48.990;8.346;2023-04-16T06:33:16;10.60;99.90
5055;DHT22;13829;48.990;8.346;2023-04-16T06:35:43;10.70;99.90
5055;DHT22;13829;48.990;8.346;2023-04-16T06:38:10;10.70;99.90
5055;DHT22;13829;48.990;8.346;2023-04-16T06:40:37;10.80;99.90
5055;DHT22;13829;48.990;8.346;2023-04-16T06:43:04;10.90;99.90
5055;DHT22;13829;48.990;8.346;2023-04-16T06:45:31;10.90;99.90
5055;DHT22;13829;48.990;8.346;2023-04-16T06:48:00;10.90;99.90
5055;DHT22;13829;48.990;8.346;2023-04-16T06:50:28;10.90;99.90
5055;DHT22;13829;48.990;8.346;2023-04-16T06:52:55;11.00;99.90
5055;DHT22;13829;48.990;8.346;2023-04-16T06:55:22;11.00;99.90
5055;DHT22;13829;48.990;8.346;2023-04-16T06:57:49;11.00;99.90
5055;DHT22;13829;48.990;8.346;2023-04-16T07:00:16;11.00;99.90
5055;DHT22;13829;48.990;8.346;2023-04-16T07:02:43;10.90;99.90
5055;DHT22;13829;48.990;8.346;2023-04-16T07:05:12;11.00;99.90
5055;DHT22;13829;48.990;8.346;2023-04-16T07:07:39;11.00;99.90
5055;DHT22;13829;48.990;8.346;2023-04-16T07:10:06;11.00;99.90
5055;DHT22;13829;48.990;8.346;2023-04-16T07:12:34;11.00;99.90
5055;DHT22;13829;48.990;8.346;2023-04-16T07:15:01;11.00;99.90
5055;DHT22;13829;48.990;8.346;2023-04-16T07:17:28;11.10;99.90
5055;DHT22;13829;48.990;8.346;2023-04-16T07:19:55;11.10;99.90
5055;DHT22;13829;48.990;8.346;2023-04-16T07:22:23;11.20;99.90
5055;DHT22;13829;48.990;8.346;2023-04-16T07:24:50;11.30;99.90
5055;DHT22;13829;48.990;8.346;2023-04-16T07:27:17;11.30;99.90
5055;DHT22;13829;48.990;8.346;2023-04-16T07:29:44;11.40;99.90
5055;DHT22;13829;48.990;8.346;2023-04-16T07:32:11;11.40;99.90
5055;DHT22;13829;48.990;8.346;2023-04-16T07:34:38;11.40;99.90
5055;DHT22;13829;48.990;8.346;2023-04-16T07:37:05;11.40;99.90
5055;DHT22;13829;48.990;8.346;2023-04-16T07:39:33;11.40;99.90
5055;DHT22;13829;48.990;8.346;2023-04-16T07:42:00;11.40;99.90
5055;DHT22;13829;48.990;8.346;2023-04-16T07:44:27;11.40;99.90
5055;DHT22;13829;48.990;8.346;2023-04-16T07:46:55;11.40;99.90
5055;DHT22;13829;48.990;8.346;2023-04-16T07:49:22;11.40;99.90
5055;DHT22;13829;48.990;8.346;2023-04-16T07:51:49;11.30;99.90
5055;DHT22;13829;48.990;8.346;2023-04-16T07:54:16;11.30;99.90
5055;DHT22;13829;48.990;8.346;2023-04-16T07:56:44;11.30;99.90
5055;DHT22;13829;48.990;8.346;2023-04-16T07:59:11;11.20;99.90
5055;DHT22;13829;48.990;8.346;2023-04-16T08:01:38;11.20;99.90
5055;DHT22;13829;48.990;8.346;2023-04-16T08:04:05;11.10;99.90
5055;DHT22;13829;48.990;8.346;2023-04-16T08:06:32;11.20;99.90
5055;DHT22;13829;48.990;8.346;2023-04-16T08:08:59;11.20;99.90
5055;DHT22;13829;48.990;8.346;2023-04-16T08:11:26;11.20;99.90
5055;DHT22;13829;48.990;8.346;2023-04-16T08:13:54;11.20;99.90
5055;DHT22;13829;48.990;8.346;2023-04-16T08:16:21;11.20;99.90
5055;DHT22;13829;48.990;8.346;2023-04-16T08:18:48;11.40;99.90
5055;DHT22;13829;48.990;8.346;2023-04-16T08:21:15;11.50;99.90
5055;DHT22;13829;48.990;8.346;2023-04-16T08:23:41;11.60;99.90
5055;DHT22;13829;48.990;8.346;2023-04-16T08:26:08;11.60;99.90
5055;DHT22;13829;48.990;8.346;2023-04-16T08:28:35;11.60;99.90
5055;DHT22;13829;48.990;8.346;2023-04-16T08:31:04;11.60;99.90
5055;DHT22;13829;48.990;8.346;2023-04-16T08:33:31;11.60;99.90
5055;DHT22;13829;48.990;8.346;2023-04-16T08:35:58;11.60;99.90
5055;DHT22;13829;48.990;8.346;2023-04-16T08:38:25;11.50;99.90
5055;DHT22;13829;48.990;8.346;2023-04-16T08:40:52;11.50;99.90
5055;DHT22;13829;48.990;8.346;2023-04-16T08:43:22;11.60;99.90
5055;DHT22;13829;48.990;8.346;2023-04-16T08:45:52;11.60;99.90
5055;DHT22;13829;48.990;8.346;2023-04-16T08:48:22;11.60;99.90
5055;DHT22;13829;48.990;8.346;2023-04-16T08:50:51;11.60;99.90
5055;DHT22;13829;48.990;8.346;2023-04-16T08:53:22;11.70;99.90
5055;DHT22;13829;48.990;8.346;2023-04-16T08:55:58;11.80;99.90
5055;DHT22;13829;48.990;8.346;2023-04-16T08:58:30;11.90;99.90
5055;DHT22;13829;48.990;8.346;2023-04-16T09:01:01;12.00;99.90
5055;DHT22;13829;48.990;8.346;2023-04-16T09:03:31;12.00;99.90
5055;DHT22;13829;48.990;8.346;2023-04-16T09:06:00;12.00;99.90
5055;DHT22;13829;48.990;8.346;2023-04-16T09:08:30;12.00;99.90
5055;DHT22;13829;48.990;8.346;2023-04-16T09:10:57;11.90;99.90
5055;DHT22;13829;48.990;8.346;2023-04-16T09:13:25;11.80;99.90
5055;DHT22;13829;48.990;8.346;2023-04-16T09:15:53;11.80;99.90
5055;DHT22;13829;48.990;8.346;2023-04-16T09:18:21;11.90;99.90
5055;DHT22;13829;48.990;8.346;2023-04-16T09:20:50;11.80;99.90
5055;DHT22;13829;48.990;8.346;2023-04-16T09:23:17;11.80;99.90
5055;DHT22;13829;48.990;8.346;2023-04-16T09:25:44;11.80;99.90
5055;DHT22;13829;48.990;8.346;2023-04-16T09:28:11;11.80;99.90
5055;DHT22;13829;48.990;8.346;2023-04-16T09:30:38;11.80;99.90
5055;DHT22;13829;48.990;8.346;2023-04-16T09:33:13;11.80;99.90
5055;DHT22;13829;48.990;8.346;2023-04-16T09:35:45;11.80;99.90
5055;DHT22;13829;48.990;8.346;2023-04-16T09:38:14;11.90;99.90
5055;DHT22;13829;48.990;8.346;2023-04-16T09:40:42;11.80;99.90
5055;DHT22;13829;48.990;8.346;2023-04-16T09:43:10;11.70;99.90
5055;DHT22;13829;48.990;8.346;2023-04-16T09:45:47;11.70;99.90
5055;DHT22;13829;48.990;8.346;2023-04-16T09:48:27;11.70;99.90
5055;DHT22;13829;48.990;8.346;2023-04-16T09:50:55;11.60;99.90
5055;DHT22;13829;48.990;8.346;2023-04-16T09:53:25;11.60;99.90
5055;DHT22;13829;48.990;8.346;2023-04-16T09:55:55;11.60;99.90
5055;DHT22;13829;48.990;8.346;2023-04-16T09:58:23;11.60;99.90
5055;DHT22;13829;48.990;8.346;2023-04-16T10:00:54;11.60;99.90
5055;DHT22;13829;48.990;8.346;2023-04-16T10:03:29;11.60;99.90
5055;DHT22;13829;48.990;8.346;2023-04-16T10:05:59;11.60;99.90
5055;DHT22;13829;48.990;8.346;2023-04-16T10:08:28;11.60;99.90
5055;DHT22;13829;48.990;8.346;2023-04-16T10:10:55;11.70;99.90
5055;DHT22;13829;48.990;8.346;2023-04-16T10:13:23;11.70;99.90
5055;DHT22;13829;48.990;8.346;2023-04-16T10:15:54;11.80;99.90
5055;DHT22;13829;48.990;8.346;2023-04-16T10:18:22;11.80;99.90
5055;DHT22;13829;48.990;8.346;2023-04-16T10:20:49;11.70;99.90
5055;DHT22;13829;48.990;8.346;2023-04-16T10:23:16;11.80;99.90
5055;DHT22;13829;48.990;8.346;2023-04-16T10:25:47;11.80;99.90
5055;DHT22;13829;48.990;8.346;2023-04-16T10:28:14;11.70;99.90
5055;DHT22;13829;48.990;8.346;2023-04-16T10:30:43;11.70;99.90
5055;DHT22;13829;48.990;8.346;2023-04-16T10:33:19;11.80;99.90
5055;DHT22;13829;48.990;8.346;2023-04-16T10:35:47;11.70;99.90
5055;DHT22;13829;48.990;8.346;2023-04-16T10:38:23;11.80;99.90
5055;DHT22;13829;48.990;8.346;2023-04-16T10:40:59;11.80;99.90
5055;DHT22;13829;48.990;8.346;2023-04-16T10:43:28;11.80;99.90
5055;DHT22;13829;48.990;8.346;2023-04-16T10:45:55;11.80;99.90
5055;DHT22;13829;48.990;8.346;2023-04-16T10:48:23;11.80;99.90
5055;DHT22;13829;48.990;8.346;2023-04-16T10:50:54;11.80;99.90
5055;DHT22;13829;48.990;8.346;2023-04-16T10:53:24;11.80;99.90
5055;DHT22;13829;48.990;8.346;2023-04-16T10:56:09;11.90;99.90
5055;DHT22;13829;48.990;8.346;2023-04-16T10:58:40;11.90;99.90
5055;DHT22;13829;48.990;8.346;2023-04-16T11:01:10;11.90;99.90
5055;DHT22;13829;48.990;8.346;2023-04-16T11:03:43;11.90;99.90
5055;DHT22;13829;48.990;8.346;2023-04-16T11:06:13;12.00;99.90
5055;DHT22;13829;48.990;8.346;2023-04-16T11:08:43;12.00;99.90
5055;DHT22;13829;48.990;8.346;2023-04-16T11:11:13;12.00;99.90
5055;DHT22;13829;48.990;8.346;2023-04-16T11:13:42;11.80;99.90
5055;DHT22;13829;48.990;8.346;2023-04-16T11:16:10;11.80;99.90
5055;DHT22;13829;48.990;8.346;2023-04-16T11:18:38;11.70;99.90
5055;DHT22;13829;48.990;8.346;2023-04-16T11:21:07;11.70;99.90
5055;DHT22;13829;48.990;8.346;2023-04-16T11:23:45;11.70;99.90
5055;DHT22;13829;48.990;8.346;2023-04-16T11:26:25;11.60;99.90
5055;DHT22;13829;48.990;8.346;2023-04-16T11:28:54;11.70;99.90
5055;DHT22;13829;48.990;8.346;2023-04-16T11:31:22;11.60;99.90
5055;DHT22;13829;48.990;8.346;2023-04-16T11:33:51;11.60;99.90
5055;DHT22;13829;48.990;8.346;2023-04-16T11:36:18;11.60;99.90
5055;DHT22;13829;48.990;8.346;2023-04-16T11:38:46;11.60;99.90
5055;DHT22;13829;48.990;8.346;2023-04-16T11:41:19;11.60;99.90
5055;DHT22;13829;48.990;8.346;2023-04-16T11:43:48;11.60;99.90
5055;DHT22;13829;48.990;8.346;2023-04-16T11:46:15;11.50;99.90
5055;DHT22;13829;48.990;8.346;2023-04-16T11:48:48;11.60;99.90
5055;DHT22;13829;48.990;8.346;2023-04-16T11:51:17;11.70;99.90
5055;DHT22;13829;48.990;8.346;2023-04-16T11:53:49;11.60;99.90
5055;DHT22;13829;48.990;8.346;2023-04-16T11:56:24;11.60;99.90
5055;DHT22;13829;48.990;8.346;2023-04-16T11:59:07;11.60;99.90
5055;DHT22;13829;48.990;8.346;2023-04-16T12:01:36;11.60;99.90
5055;DHT22;13829;48.990;8.346;2023-04-16T12:04:04;11.60;99.90
5055;DHT22;13829;48.990;8.346;2023-04-16T12:06:31;11.60;99.90
5055;DHT22;13829;48.990;8.346;2023-04-16T12:08:59;11.50;99.90
5055;DHT22;13829;48.990;8.346;2023-04-16T12:11:46;11.60;99.90
5055;DHT22;13829;48.990;8.346;2023-04-16T12:14:14;11.60;99.90
5055;DHT22;13829;48.990;8.346;2023-04-16T12:16:41;11.60;99.90
5055;DHT22;13829;48.990;8.346;2023-04-16T12:19:10;11.60;99.90
5055;DHT22;13829;48.990;8.346;2023-04-16T12:21:39;11.60;99.90
5055;DHT22;13829;48.990;8.346;2023-04-16T12:24:08;11.60;99.90
5055;DHT22;13829;48.990;8.346;2023-04-16T12:26:41;11.60;99.90
5055;DHT22;13829;48.990;8.346;2023-04-16T12:29:16;11.70;99.90
5055;DHT22;13829;48.990;8.346;2023-04-16T12:31:45;11.80;99.90
5055;DHT22;13829;48.990;8.346;2023-04-16T12:34:12;11.90;99.90
5055;DHT22;13829;48.990;8.346;2023-04-16T12:36:41;11.90;99.90
5055;DHT22;13829;48.990;8.346;2023-04-16T12:39:09;11.80;99.90
5055;DHT22;13829;48.990;8.346;2023-04-16T12:41:37;11.80;99.90
5055;DHT22;13829;48.990;8.346;2023-04-16T12:44:07;11.80;99.90
5055;DHT22;13829;48.990;8.346;2023-04-16T12:46:38;11.90;99.90
5055;DHT22;13829;48.990;8.346;2023-04-16T12:49:06;11.90;99.90
5055;DHT22;13829;48.990;8.346;2023-04-16T12:51:34;12.00;99.90
5055;DHT22;13829;48.990;8.346;2023-04-16T12:54:04;12.00;99.90
5055;DHT22;13829;48.990;8.346;2023-04-16T12:56:32;11.90;99.90
5055;DHT22;13829;48.990;8.346;2023-04-16T12:59:00;11.90;99.90
5055;DHT22;13829;48.990;8.346;2023-04-16T13:01:27;11.90;99.90
5055;DHT22;13829;48.990;8.346;2023-04-16T13:03:56;12.00;99.90
5055;DHT22;13829;48.990;8.346;2023-04-16T13:06:23;11.90;99.90
5055;DHT22;13829;48.990;8.346;2023-04-16T13:08:50;11.80;99.90
5055;DHT22;13829;48.990;8.346;2023-04-16T13:11:17;11.90;99.90
5055;DHT22;13829;48.990;8.346;2023-04-16T13:13:44;12.00;99.90
5055;DHT22;13829;48.990;8.346;2023-04-16T13:16:11;12.00;99.90
5055;DHT22;13829;48.990;8.346;2023-04-16T13:18:38;12.00;99.90
5055;DHT22;13829;48.990;8.346;2023-04-16T13:21:07;11.90;99.90
5055;DHT22;13829;48.990;8.346;2023-04-16T13:23:34;11.90;99.90
5055;DHT22;13829;48.990;8.346;2023-04-16T13:26:01;11.90;99.90
5055;DHT22;13829;48.990;8.346;2023-04-16T13:28:28;11.90;99.90
5055;DHT22;13829;48.990;8.346;2023-04-16T13:30:55;11.90;99.90
5055;DHT22;13829;48.990;8.346;2023-04-16T13:33:23;11.90;99.90
5055;DHT22;13829;48.990;8.346;2023-04-16T13:35:50;11.90;99.90
5055;DHT22;13829;48.990;8.346;2023-04-16T13:38:18;11.90;99.90
5055;DHT22;13829;48.990;8.346;2023-04-16T13:40:45;11.90;99.90
5055;DHT22;13829;48.990;8.346;2023-04-16T13:43:12;11.90;99.90
5055;DHT22;13829;48.990;8.346;2023-04-16T13:45:41;11.80;99.90
5055;DHT22;13829;48.990;8.346;2023-04-16T13:48:08;11.80;99.90
5055;DHT22;13829;48.990;8.346;2023-04-16T13:50:35;11.90;99.90
5055;DHT22;13829;48.990;8.346;2023-04-16T13:53:02;11.90;99.90
5055;DHT22;13829;48.990;8.346;2023-04-16T13:55:31;11.90;99.90
5055;DHT22;13829;48.990;8.346;2023-04-16T13:57:58;11.80;99.90
5055;DHT22;13829;48.990;8.346;2023-04-16T14:00:25;11.80;99.90
5055;DHT22;13829;48.990;8.346;2023-04-16T14:02:52;11.80;99.90
5055;DHT22;13829;48.990;8.346;2023-04-16T14:05:19;11.70;99.90
5055;DHT22;13829;48.990;8.346;2023-04-16T14:07:47;11.80;99.90
5055;DHT22;13829;48.990;8.346;2023-04-16T14:10:15;11.80;99.90
5055;DHT22;13829;48.990;8.346;2023-04-16T14:12:43;11.80;99.90
5055;DHT22;13829;48.990;8.346;2023-04-16T14:15:10;11.80;99.90
5055;DHT22;13829;48.990;8.346;2023-04-16T14:17:39;11.80;99.90
5055;DHT22;13829;48.990;8.346;2023-04-16T14:20:08;11.80;99.90
5055;DHT22;13829;48.990;8.346;2023-04-16T14:22:36;11.70;99.90
5055;DHT22;13829;48.990;8.346;2023-04-16T14:25:03;11.70;99.90
5055;DHT22;13829;48.990;8.346;2023-04-16T14:27:31;11.70;99.90
5055;DHT22;13829;48.990;8.346;2023-04-16T14:29:59;11.70;99.90
5055;DHT22;13829;48.990;8.346;2023-04-16T14:32:26;11.70;99.90
5055;DHT22;13829;48.990;8.346;2023-04-16T14:34:54;11.70;99.90
5055;DHT22;13829;48.990;8.346;2023-04-16T14:37:22;11.80;99.90
5055;DHT22;13829;48.990;8.346;2023-04-16T14:39:49;11.80;99.90
5055;DHT22;13829;48.990;8.346;2023-04-16T14:42:16;11.80;99.90
5055;DHT22;13829;48.990;8.346;2023-04-16T14:44:43;11.80;99.90
5055;DHT22;13829;48.990;8.346;2023-04-16T14:47:11;11.90;99.90
5055;DHT22;13829;48.990;8.346;2023-04-16T14:49:38;11.80;99.90
5055;DHT22;13829;48.990;8.346;2023-04-16T14:52:05;11.90;99.90
5055;DHT22;13829;48.990;8.346;2023-04-16T14:54:32;11.80;99.90
5055;DHT22;13829;48.990;8.346;2023-04-16T14:56:59;11.80;99.90
5055;DHT22;13829;48.990;8.346;2023-04-16T14:59:26;11.80;99.90
5055;DHT22;13829;48.990;8.346;2023-04-16T15:01:54;11.90;99.90
5055;DHT22;13829;48.990;8.346;2023-04-16T15:04:23;11.90;99.90
5055;DHT22;13829;48.990;8.346;2023-04-16T15:06:51;11.90;99.90
5055;DHT22;13829;48.990;8.346;2023-04-16T15:09:18;11.90;99.90
5055;DHT22;13829;48.990;8.346;2023-04-16T15:11:45;11.90;99.90
5055;DHT22;13829;48.990;8.346;2023-04-16T15:14:12;11.90;99.90
5055;DHT22;13829;48.990;8.346;2023-04-16T15:16:38;11.80;99.90
5055;DHT22;13829;48.990;8.346;2023-04-16T15:19:05;11.80;99.90
5055;DHT22;13829;48.990;8.346;2023-04-16T15:21:34;11.70;99.90
5055;DHT22;13829;48.990;8.346;2023-04-16T15:24:01;11.80;99.90
5055;DHT22;13829;48.990;8.346;2023-04-16T15:26:28;11.70;99.90
5055;DHT22;13829;48.990;8.346;2023-04-16T15:28:55;11.70;99.90
5055;DHT22;13829;48.990;8.346;2023-04-16T15:31:22;11.70;99.90
5055;DHT22;13829;48.990;8.346;2023-04-16T15:33:49;11.70;99.90
5055;DHT22;13829;48.990;8.346;2023-04-16T15:36:16;11.60;99.90
5055;DHT22;13829;48.990;8.346;2023-04-16T15:38:44;11.70;99.90
5055;DHT22;13829;48.990;8.346;2023-04-16T15:41:11;11.70;99.90
5055;DHT22;13829;48.990;8.346;2023-04-16T15:43:38;11.70;99.90
5055;DHT22;13829;48.990;8.346;2023-04-16T15:46:05;11.60;99.90
5055;DHT22;13829;48.990;8.346;2023-04-16T15:48:33;11.60;99.90